Canute, Oklahoma
Current Conditions -  °F | °C
As of 10:55 PM on Friday 28 Nov 2014 (Local Time) from KELK Reporting Station
Clear Clear  
Wind Chill: 52°   Ceiling: Unl
Heat Index: 52°   Visibility: 10mi
Dew Point: 39°   Wind: 14mph
Humidity: 62%   Direction: 190°S
Pressure: 29.84"   Gusts: NA
Location:  35.42°N, 99.28°W
Report Text: KELK 290455Z AUTO 19012KT 10SM CLR 11/04 A2984 RMK AO2
Loading
Personal Weather Stations






























Interactive Weather Map New forecast layout! Learn more

10-Day Weather Forecast

Advertisements
Track Severe Weather on mobile